createdAt,value
2023-03-29T00:02:05.395Z,2.50
2023-03-29T00:04:34.100Z,2.47
2023-03-29T00:07:04.416Z,2.40
2023-03-29T00:09:33.414Z,2.40
2023-03-29T00:12:01.715Z,2.30
2023-03-29T00:14:30.784Z,2.30
2023-03-29T00:16:58.298Z,2.40
2023-03-29T00:19:25.289Z,2.33
2023-03-29T00:21:52.119Z,2.63
2023-03-29T00:24:18.934Z,2.30
2023-03-29T00:26:45.992Z,2.33
2023-03-29T00:29:12.788Z,2.30
2023-03-29T00:31:39.757Z,2.77
2023-03-29T00:34:07.234Z,2.50
2023-03-29T00:36:34.047Z,2.70
2023-03-29T00:39:01.097Z,2.43
2023-03-29T00:41:27.920Z,2.40
2023-03-29T00:44:03.731Z,3.00
2023-03-29T00:46:31.836Z,2.83
2023-03-29T00:49:12.725Z,2.80
2023-03-29T00:51:42.577Z,3.10
2023-03-29T00:54:14.657Z,2.90
2023-03-29T00:56:47.462Z,2.70
2023-03-29T00:59:19.150Z,2.60
2023-03-29T01:01:57.760Z,3.00
2023-03-29T01:04:51.769Z,2.57
2023-03-29T01:07:23.731Z,2.60
2023-03-29T01:10:00.767Z,2.43
2023-03-29T01:12:32.830Z,2.70
2023-03-29T01:15:06.716Z,2.70
2023-03-29T01:17:33.624Z,2.90
2023-03-29T01:20:26.575Z,2.70
2023-03-29T01:23:14.038Z,2.90
2023-03-29T01:26:12.499Z,3.10
2023-03-29T01:28:50.868Z,3.20
2023-03-29T01:31:25.235Z,2.90
2023-03-29T01:34:01.055Z,2.90
2023-03-29T01:36:34.990Z,3.20
2023-03-29T01:39:07.140Z,3.10
2023-03-29T01:42:07.279Z,2.90
2023-03-29T01:44:57.488Z,2.90
2023-03-29T01:47:33.236Z,3.10
2023-03-29T01:50:03.969Z,2.90
2023-03-29T01:52:55.047Z,2.90
2023-03-29T01:55:27.280Z,2.70
2023-03-29T01:57:58.204Z,2.53
2023-03-29T02:00:27.699Z,2.60
2023-03-29T02:03:00.349Z,2.70
2023-03-29T02:05:30.636Z,2.73
2023-03-29T02:08:03.774Z,2.70
2023-03-29T02:10:33.870Z,2.73
2023-03-29T02:13:00.937Z,2.73
2023-03-29T02:15:28.139Z,2.63
2023-03-29T02:17:56.928Z,2.57
2023-03-29T02:20:31.695Z,2.77
2023-03-29T02:23:21.250Z,2.70
2023-03-29T02:25:50.922Z,2.83
2023-03-29T02:28:18.051Z,3.00
2023-03-29T02:31:04.718Z,3.10
2023-03-29T02:33:48.876Z,3.30
2023-03-29T02:36:28.630Z,3.50
2023-03-29T02:38:58.358Z,3.20
2023-03-29T02:41:26.748Z,3.13
2023-03-29T02:43:56.692Z,3.80
2023-03-29T02:46:24.640Z,3.90
2023-03-29T02:48:54.395Z,3.70
2023-03-29T02:51:29.100Z,4.07
2023-03-29T02:54:19.458Z,4.37
2023-03-29T02:56:49.823Z,4.30
2023-03-29T02:59:19.509Z,4.23
2023-03-29T03:01:46.524Z,4.03
2023-03-29T03:04:14.350Z,3.87
2023-03-29T03:06:41.176Z,4.10
2023-03-29T03:09:10.525Z,4.17
2023-03-29T03:11:40.128Z,4.00
2023-03-29T03:14:07.547Z,3.83
2023-03-29T03:16:36.205Z,4.40
2023-03-29T03:19:03.855Z,4.30
2023-03-29T03:21:30.980Z,4.10
2023-03-29T03:24:00.165Z,4.30
2023-03-29T03:26:29.954Z,4.40
2023-03-29T03:28:57.218Z,4.47
2023-03-29T03:31:50.781Z,4.57
2023-03-29T03:34:39.235Z,4.13
2023-03-29T03:37:06.246Z,4.20
2023-03-29T03:39:34.852Z,4.20
2023-03-29T03:42:07.968Z,4.63
2023-03-29T03:44:39.475Z,4.43
2023-03-29T03:47:30.751Z,4.47
2023-03-29T03:50:11.535Z,4.27
2023-03-29T03:52:38.644Z,3.90
2023-03-29T03:55:06.539Z,3.97
2023-03-29T03:57:43.225Z,4.13
2023-03-29T04:00:19.394Z,3.67
2023-03-29T04:02:56.352Z,3.93
2023-03-29T04:05:23.708Z,4.17
2023-03-29T04:07:50.943Z,3.67
2023-03-29T04:10:28.203Z,4.20
2023-03-29T04:13:22.908Z,3.90
2023-03-29T04:16:13.030Z,4.50
2023-03-29T04:18:40.318Z,4.30
2023-03-29T04:21:07.582Z,4.63
2023-03-29T04:23:36.344Z,4.30
2023-03-29T04:26:03.388Z,4.70
2023-03-29T04:28:52.090Z,4.40
2023-03-29T04:31:32.192Z,4.13
2023-03-29T04:34:34.094Z,4.20
2023-03-29T04:37:10.078Z,3.87
2023-03-29T04:39:37.978Z,4.27
2023-03-29T04:42:06.035Z,3.73
2023-03-29T04:44:34.152Z,4.37
2023-03-29T04:47:04.442Z,4.40
2023-03-29T04:49:49.924Z,4.47
2023-03-29T04:52:24.886Z,4.07
2023-03-29T04:54:52.368Z,3.57
2023-03-29T04:57:24.452Z,4.43
2023-03-29T05:00:16.791Z,3.83
2023-03-29T05:03:04.505Z,4.33
2023-03-29T05:05:34.450Z,4.07
2023-03-29T05:08:03.285Z,4.03
2023-03-29T05:10:41.951Z,4.30
2023-03-29T05:13:09.519Z,3.73
2023-03-29T05:15:38.125Z,4.20
2023-03-29T05:18:06.452Z,4.10
2023-03-29T05:20:35.309Z,3.73
2023-03-29T05:23:02.616Z,3.63
2023-03-29T05:25:49.996Z,3.63
2023-03-29T05:28:17.267Z,4.27
2023-03-29T05:30:44.721Z,4.23
2023-03-29T05:33:19.781Z,3.80
2023-03-29T05:35:46.940Z,3.83
2023-03-29T05:38:13.984Z,4.00
2023-03-29T05:40:41.553Z,4.13
2023-03-29T05:43:29.367Z,4.03
2023-03-29T05:45:57.140Z,4.10
2023-03-29T05:48:25.781Z,3.90
2023-03-29T05:50:54.513Z,3.87
2023-03-29T05:53:23.666Z,4.03
2023-03-29T05:55:51.315Z,3.90
2023-03-29T05:58:21.507Z,4.10
2023-03-29T06:00:49.945Z,3.73
2023-03-29T06:03:33.684Z,3.77
2023-03-29T06:06:03.845Z,3.90
2023-03-29T06:08:32.541Z,3.77
2023-03-29T06:11:16.082Z,3.07
2023-03-29T06:14:06.257Z,3.43
2023-03-29T06:16:33.484Z,3.20
2023-03-29T06:19:01.456Z,3.33
2023-03-29T06:21:30.345Z,2.70
2023-03-29T06:23:57.625Z,3.13
2023-03-29T06:26:27.874Z,3.03
2023-03-29T06:28:54.917Z,2.77
2023-03-29T06:31:22.144Z,2.50
2023-03-29T06:33:51.615Z,2.70
2023-03-29T06:36:35.025Z,2.97
2023-03-29T06:39:08.535Z,2.57
2023-03-29T06:42:10.109Z,2.70
2023-03-29T06:44:59.314Z,2.60
2023-03-29T06:47:30.892Z,2.40
2023-03-29T06:49:58.147Z,2.40
2023-03-29T06:52:34.175Z,2.30
2023-03-29T06:55:07.619Z,2.10
2023-03-29T06:57:36.148Z,2.30
2023-03-29T07:00:19.416Z,1.97
2023-03-29T07:03:20.250Z,2.20
2023-03-29T07:05:52.027Z,2.40
2023-03-29T07:08:21.472Z,1.97
2023-03-29T07:10:59.407Z,2.20
2023-03-29T07:13:46.223Z,2.20
2023-03-29T07:16:19.189Z,2.10
2023-03-29T07:18:51.227Z,2.23
2023-03-29T07:21:41.345Z,2.37
2023-03-29T07:24:08.706Z,2.30
2023-03-29T07:26:36.341Z,2.10
2023-03-29T07:29:03.366Z,2.13
2023-03-29T07:31:31.917Z,1.90
2023-03-29T07:34:18.806Z,1.90
2023-03-29T07:36:45.795Z,2.20
2023-03-29T07:39:15.687Z,2.40
2023-03-29T07:41:50.691Z,2.50
2023-03-29T07:44:18.339Z,2.00
2023-03-29T07:46:46.555Z,2.70
2023-03-29T07:49:13.617Z,2.57
2023-03-29T07:51:40.499Z,2.50
2023-03-29T07:54:10.771Z,2.80
2023-03-29T07:56:52.610Z,2.40
2023-03-29T07:59:24.870Z,2.63
2023-03-29T08:02:04.301Z,2.63
2023-03-29T08:04:36.596Z,2.30
2023-03-29T08:07:19.126Z,2.40
2023-03-29T08:10:02.024Z,1.87
2023-03-29T08:12:49.179Z,2.30
2023-03-29T08:15:17.211Z,2.40
2023-03-29T08:17:44.984Z,2.20
2023-03-29T08:20:15.643Z,2.70
2023-03-29T08:22:45.304Z,2.57
2023-03-29T08:25:30.557Z,2.40
2023-03-29T08:27:58.492Z,2.67
2023-03-29T08:30:37.117Z,2.70
2023-03-29T08:33:04.569Z,2.30
2023-03-29T08:35:31.533Z,2.23
2023-03-29T08:38:21.743Z,2.30
2023-03-29T08:40:49.911Z,2.40
2023-03-29T08:43:43.140Z,2.77
2023-03-29T08:46:51.061Z,3.03
2023-03-29T08:49:41.639Z,3.87
2023-03-29T08:52:36.296Z,4.17
2023-03-29T08:55:38.892Z,3.20
2023-03-29T08:58:37.541Z,3.07
2023-03-29T09:01:09.126Z,3.07
2023-03-29T09:04:14.850Z,2.90
2023-03-29T09:06:55.608Z,2.67
2023-03-29T09:09:32.813Z,3.00
2023-03-29T09:12:29.060Z,2.83
2023-03-29T09:15:19.633Z,3.17
2023-03-29T09:18:01.567Z,3.03
2023-03-29T09:20:47.736Z,2.83
2023-03-29T09:23:56.082Z,2.60
2023-03-29T09:27:00.315Z,2.43
2023-03-29T09:29:42.643Z,3.33
2023-03-29T09:32:26.560Z,3.00
2023-03-29T09:35:11.845Z,2.60
2023-03-29T09:37:41.190Z,2.50
2023-03-29T09:40:19.483Z,2.67
2023-03-29T09:43:05.144Z,2.43
2023-03-29T09:45:32.250Z,2.17
2023-03-29T09:48:07.912Z,2.43
2023-03-29T09:50:40.112Z,2.10
2023-03-29T09:53:09.749Z,2.27
2023-03-29T09:55:40.824Z,2.20
2023-03-29T09:58:36.038Z,2.33
2023-03-29T10:01:10.459Z,2.30
2023-03-29T10:03:39.399Z,2.00
2023-03-29T10:06:17.308Z,2.50
2023-03-29T10:08:55.087Z,2.60
2023-03-29T10:11:31.839Z,2.37
2023-03-29T10:14:23.070Z,2.37
2023-03-29T10:16:56.389Z,2.53
2023-03-29T10:19:34.709Z,2.60
2023-03-29T10:22:16.261Z,2.63
2023-03-29T10:24:49.573Z,2.80
2023-03-29T10:27:27.102Z,2.60
2023-03-29T10:29:55.357Z,2.97
2023-03-29T10:32:22.875Z,2.73
2023-03-29T10:34:51.168Z,2.57
2023-03-29T10:37:19.592Z,2.27
2023-03-29T10:39:47.974Z,2.30
2023-03-29T10:42:20.413Z,2.67
2023-03-29T10:45:00.035Z,2.60
2023-03-29T10:47:31.638Z,3.37
2023-03-29T10:50:01.881Z,3.10
2023-03-29T10:52:30.082Z,3.00
2023-03-29T10:54:57.184Z,3.03
2023-03-29T10:57:39.549Z,2.83
2023-03-29T11:00:47.001Z,2.70
2023-03-29T11:03:32.637Z,2.70
2023-03-29T11:06:07.825Z,2.90
2023-03-29T11:08:49.252Z,2.97
2023-03-29T11:11:45.413Z,3.07
2023-03-29T11:14:37.293Z,3.20
2023-03-29T11:17:28.244Z,3.63
2023-03-29T11:20:05.357Z,2.60
2023-03-29T11:22:32.193Z,2.63
2023-03-29T11:25:13.945Z,3.10
2023-03-29T11:27:45.275Z,3.50
2023-03-29T11:30:48.903Z,3.80
2023-03-29T11:33:46.020Z,2.80
2023-03-29T11:36:52.765Z,2.50
2023-03-29T11:39:52.920Z,2.60
2023-03-29T11:42:32.196Z,2.17
2023-03-29T11:45:01.477Z,2.40
2023-03-29T11:47:32.731Z,2.40
2023-03-29T11:50:06.218Z,2.63
2023-03-29T11:52:37.922Z,2.63
2023-03-29T11:55:12.126Z,2.20
2023-03-29T11:57:51.232Z,2.30
2023-03-29T12:00:42.556Z,2.47
2023-03-29T12:03:32.757Z,2.03
2023-03-29T12:06:06.958Z,1.90
2023-03-29T12:08:39.807Z,2.00
2023-03-29T12:11:19.915Z,2.17
2023-03-29T12:13:55.177Z,2.13
2023-03-29T12:16:31.244Z,1.93
2023-03-29T12:19:04.610Z,2.13
2023-03-29T12:21:33.835Z,2.20
2023-03-29T12:24:00.818Z,2.37
2023-03-29T12:26:50.467Z,2.40
2023-03-29T12:29:37.335Z,3.80
2023-03-29T12:32:42.195Z,3.40
2023-03-29T12:35:45.050Z,2.80
2023-03-29T12:38:31.216Z,2.70
2023-03-29T12:41:21.726Z,2.70
2023-03-29T12:44:09.545Z,2.87
2023-03-29T12:46:57.504Z,2.77
2023-03-29T12:49:32.777Z,3.00
2023-03-29T12:52:03.049Z,2.37
2023-03-29T12:54:32.721Z,2.67
2023-03-29T12:57:02.619Z,3.50
2023-03-29T12:59:43.346Z,3.07
2023-03-29T13:02:14.072Z,2.67
2023-03-29T13:04:44.081Z,2.60
2023-03-29T13:07:16.006Z,3.50
2023-03-29T13:10:03.131Z,3.10
2023-03-29T13:12:46.037Z,2.80
2023-03-29T13:15:16.924Z,2.70
2023-03-29T13:18:22.388Z,2.83
2023-03-29T13:21:03.375Z,2.63
2023-03-29T13:23:58.402Z,2.37
2023-03-29T13:26:47.144Z,2.70
2023-03-29T13:29:38.092Z,2.60
2023-03-29T13:32:42.581Z,2.70
2023-03-29T13:35:44.643Z,2.70
2023-03-29T13:38:19.579Z,9.20
2023-03-29T13:40:53.775Z,8.37
2023-03-29T13:43:34.296Z,6.03
2023-03-29T13:46:01.367Z,3.90
2023-03-29T13:48:46.853Z,4.50
2023-03-29T13:51:13.857Z,3.37
2023-03-29T13:53:53.009Z,3.50
2023-03-29T13:56:25.050Z,2.83
2023-03-29T13:59:02.004Z,3.23
2023-03-29T14:01:47.489Z,3.10
2023-03-29T14:04:20.279Z,2.90
2023-03-29T14:06:53.141Z,3.23
2023-03-29T14:09:23.492Z,2.80
2023-03-29T14:11:51.164Z,2.53
2023-03-29T14:14:24.078Z,4.10
2023-03-29T14:16:51.363Z,3.40
2023-03-29T14:19:31.370Z,2.93
2023-03-29T14:22:01.060Z,3.23
2023-03-29T14:24:39.079Z,3.37
2023-03-29T14:27:10.186Z,3.10
2023-03-29T14:29:37.611Z,2.30
2023-03-29T14:32:12.630Z,2.43
2023-03-29T14:34:40.592Z,2.13
2023-03-29T14:37:10.029Z,2.30
2023-03-29T14:39:37.364Z,2.40
2023-03-29T14:42:10.523Z,2.43
2023-03-29T14:44:37.426Z,2.03
2023-03-29T14:47:04.412Z,2.00
2023-03-29T14:49:32.311Z,1.63
2023-03-29T14:51:59.460Z,1.90
2023-03-29T14:54:29.582Z,2.00
2023-03-29T14:56:56.556Z,1.70
2023-03-29T14:59:37.744Z,1.90
2023-03-29T15:02:05.125Z,1.60
2023-03-29T15:04:37.417Z,1.73
2023-03-29T15:07:05.007Z,1.80
2023-03-29T15:09:34.721Z,2.10
2023-03-29T15:12:03.374Z,2.07
2023-03-29T15:14:38.079Z,1.97
2023-03-29T15:17:29.386Z,2.37
2023-03-29T15:20:11.530Z,2.20
2023-03-29T15:22:40.406Z,2.20
2023-03-29T15:25:17.173Z,2.00
2023-03-29T15:27:44.215Z,2.00
2023-03-29T15:30:16.750Z,2.00
2023-03-29T15:32:43.825Z,1.80
2023-03-29T15:35:26.289Z,1.83
2023-03-29T15:37:53.635Z,2.10
2023-03-29T15:40:24.901Z,2.30
2023-03-29T15:42:53.281Z,2.00
2023-03-29T15:45:22.899Z,2.07
2023-03-29T15:47:49.909Z,1.90
2023-03-29T15:50:17.017Z,2.00
2023-03-29T15:52:43.818Z,1.90
2023-03-29T15:55:11.539Z,2.00
2023-03-29T15:57:38.711Z,2.20
2023-03-29T16:00:08.027Z,2.30
2023-03-29T16:02:39.458Z,2.00
2023-03-29T16:05:06.527Z,2.10
2023-03-29T16:07:33.336Z,2.50
2023-03-29T16:10:00.327Z,2.70
2023-03-29T16:12:27.107Z,2.20
2023-03-29T16:14:54.026Z,2.10
2023-03-29T16:17:20.874Z,2.37
2023-03-29T16:19:47.681Z,2.80
2023-03-29T16:22:14.517Z,2.70
2023-03-29T16:24:41.444Z,2.73
2023-03-29T16:27:08.344Z,3.47
2023-03-29T16:29:35.363Z,3.57
2023-03-29T16:32:04.046Z,3.40
2023-03-29T16:34:33.023Z,3.10
2023-03-29T16:36:59.933Z,3.70
2023-03-29T16:39:27.090Z,4.10
2023-03-29T16:41:53.919Z,3.77
2023-03-29T16:44:23.822Z,3.30
2023-03-29T16:46:53.940Z,3.30
2023-03-29T16:49:21.646Z,3.40
2023-03-29T16:51:48.797Z,3.37
2023-03-29T16:54:19.474Z,3.90
2023-03-29T16:56:47.066Z,2.73
2023-03-29T16:59:14.262Z,4.67
2023-03-29T17:01:41.205Z,3.60
2023-03-29T17:04:08.865Z,3.60
2023-03-29T17:06:36.248Z,3.67
2023-03-29T17:09:03.406Z,2.97
2023-03-29T17:11:30.711Z,2.57
2023-03-29T17:13:57.632Z,2.70
2023-03-29T17:16:24.879Z,2.27
2023-03-29T17:18:51.816Z,2.30
2023-03-29T17:21:19.149Z,2.30
2023-03-29T17:23:47.138Z,2.10
2023-03-29T17:26:14.204Z,2.60
2023-03-29T17:28:41.265Z,2.40
2023-03-29T17:31:08.322Z,2.67
2023-03-29T17:33:36.033Z,2.33
2023-03-29T17:36:04.218Z,3.20
2023-03-29T17:38:33.988Z,2.70
2023-03-29T17:41:02.650Z,2.73
2023-03-29T17:43:29.411Z,2.40
2023-03-29T17:45:56.313Z,2.13
2023-03-29T17:48:24.634Z,3.00
2023-03-29T17:50:51.993Z,3.93
2023-03-29T17:53:18.910Z,2.90
2023-03-29T17:55:45.918Z,3.43
2023-03-29T17:58:12.826Z,4.30
2023-03-29T18:00:39.897Z,4.90
2023-03-29T18:03:06.862Z,4.20
2023-03-29T18:05:35.423Z,6.53
2023-03-29T18:08:03.184Z,7.20
2023-03-29T18:10:30.312Z,8.27
2023-03-29T18:12:57.190Z,4.90
2023-03-29T18:15:24.071Z,4.20
2023-03-29T18:17:51.063Z,2.90
2023-03-29T18:20:18.405Z,2.97
2023-03-29T18:22:45.475Z,3.73
2023-03-29T18:25:12.500Z,3.23
2023-03-29T18:27:39.929Z,2.90
2023-03-29T18:30:08.763Z,2.60
2023-03-29T18:32:36.714Z,2.50
2023-03-29T18:35:04.847Z,2.70
2023-03-29T18:37:31.976Z,2.40
2023-03-29T18:39:58.797Z,2.30
2023-03-29T18:42:25.798Z,9.47
2023-03-29T18:44:52.627Z,3.97
2023-03-29T18:47:19.624Z,3.47
2023-03-29T18:49:47.248Z,4.50
2023-03-29T18:52:14.189Z,3.80
2023-03-29T18:54:41.759Z,7.30
2023-03-29T18:57:08.833Z,5.03
2023-03-29T18:59:38.516Z,3.57
2023-03-29T19:02:05.411Z,3.03
2023-03-29T19:04:32.305Z,3.37
2023-03-29T19:07:01.326Z,3.10
2023-03-29T19:09:28.286Z,14.37
2023-03-29T19:11:55.401Z,4.57
2023-03-29T19:14:25.158Z,3.50
2023-03-29T19:16:52.502Z,2.90
2023-03-29T19:19:21.458Z,3.20
2023-03-29T19:21:49.438Z,2.90
2023-03-29T19:24:16.437Z,3.87
2023-03-29T19:26:44.466Z,5.73
2023-03-29T19:29:11.776Z,4.70
2023-03-29T19:31:38.818Z,3.60
2023-03-29T19:34:07.066Z,3.30
2023-03-29T19:36:34.020Z,2.27
2023-03-29T19:39:01.264Z,2.43
2023-03-29T19:41:28.620Z,2.17
2023-03-29T19:43:55.526Z,2.47
2023-03-29T19:46:22.840Z,2.80
2023-03-29T19:48:51.731Z,3.60
2023-03-29T19:51:19.519Z,3.60
2023-03-29T19:53:46.488Z,3.67
2023-03-29T19:56:14.524Z,4.00
2023-03-29T19:58:41.814Z,3.83
2023-03-29T20:01:08.643Z,4.60
2023-03-29T20:03:39.049Z,4.33
2023-03-29T20:06:08.339Z,4.27
2023-03-29T20:08:38.621Z,3.60
2023-03-29T20:11:10.472Z,3.47
2023-03-29T20:13:39.223Z,3.50
2023-03-29T20:16:11.597Z,2.90
2023-03-29T20:18:38.884Z,2.67
2023-03-29T20:21:09.823Z,2.40
2023-03-29T20:23:36.806Z,2.63
2023-03-29T20:26:03.701Z,2.23
2023-03-29T20:28:30.539Z,2.10
2023-03-29T20:30:57.361Z,2.33
2023-03-29T20:33:24.266Z,2.00
2023-03-29T20:35:51.176Z,2.37
2023-03-29T20:38:18.025Z,2.03
2023-03-29T20:40:44.981Z,2.20
2023-03-29T20:43:13.339Z,2.77
2023-03-29T20:45:52.634Z,2.20
2023-03-29T20:48:23.570Z,2.40
2023-03-29T20:50:51.463Z,2.33
2023-03-29T20:53:20.506Z,2.40
2023-03-29T20:55:47.901Z,2.90
2023-03-29T20:58:15.739Z,2.50
2023-03-29T21:00:43.634Z,2.47
2023-03-29T21:03:11.094Z,2.70
2023-03-29T21:05:38.943Z,2.40
2023-03-29T21:08:06.097Z,2.10
2023-03-29T21:10:33.319Z,2.37
2023-03-29T21:13:00.633Z,2.23
2023-03-29T21:15:29.368Z,2.40
2023-03-29T21:17:56.374Z,2.63
2023-03-29T21:20:24.166Z,2.40
2023-03-29T21:22:51.145Z,2.30
2023-03-29T21:25:19.251Z,2.47
2023-03-29T21:27:46.335Z,2.17
2023-03-29T21:30:13.372Z,2.70
2023-03-29T21:32:40.490Z,3.00
2023-03-29T21:35:08.205Z,2.60
2023-03-29T21:37:35.359Z,2.30
2023-03-29T21:40:05.737Z,2.70
2023-03-29T21:42:33.966Z,2.50
2023-03-29T21:45:01.139Z,2.17
2023-03-29T21:47:28.082Z,2.70
2023-03-29T21:49:55.069Z,2.43
2023-03-29T21:52:22.400Z,2.43
2023-03-29T21:54:49.262Z,2.60
2023-03-29T21:57:16.270Z,2.37
2023-03-29T21:59:43.231Z,2.40
2023-03-29T22:02:10.270Z,2.53
2023-03-29T22:04:37.816Z,2.27
2023-03-29T22:07:05.920Z,2.60
2023-03-29T22:09:35.057Z,2.27
2023-03-29T22:12:02.943Z,2.57
2023-03-29T22:14:34.648Z,2.00
2023-03-29T22:17:02.137Z,3.10
2023-03-29T22:19:28.991Z,2.37
2023-03-29T22:22:01.522Z,2.20
2023-03-29T22:24:29.180Z,2.30
2023-03-29T22:26:56.346Z,2.77
2023-03-29T22:29:23.258Z,2.43
2023-03-29T22:31:50.295Z,2.40
2023-03-29T22:34:17.352Z,2.37
2023-03-29T22:36:44.214Z,3.03
2023-03-29T22:39:12.181Z,2.30
2023-03-29T22:41:39.135Z,2.80
2023-03-29T22:44:05.961Z,2.47
2023-03-29T22:46:32.863Z,3.70
2023-03-29T22:48:59.734Z,2.73
2023-03-29T22:51:27.321Z,2.47
2023-03-29T22:53:54.383Z,6.10
2023-03-29T22:56:22.065Z,2.97
2023-03-29T22:58:49.079Z,2.87
2023-03-29T23:01:16.261Z,3.37
2023-03-29T23:03:43.178Z,3.50
2023-03-29T23:06:10.177Z,3.00
2023-03-29T23:08:37.186Z,3.27
2023-03-29T23:11:04.840Z,2.67
2023-03-29T23:13:33.588Z,2.47
2023-03-29T23:16:01.739Z,2.50
2023-03-29T23:18:30.299Z,2.33
2023-03-29T23:20:58.882Z,2.23
2023-03-29T23:23:27.261Z,2.37
2023-03-29T23:25:55.947Z,3.10
2023-03-29T23:28:27.434Z,2.40
2023-03-29T23:31:12.598Z,2.60
2023-03-29T23:33:42.656Z,2.60
2023-03-29T23:36:12.864Z,2.60
2023-03-29T23:38:40.062Z,2.57
2023-03-29T23:41:10.376Z,2.63
2023-03-29T23:43:40.523Z,2.33
2023-03-29T23:46:13.444Z,2.60
2023-03-29T23:48:43.374Z,2.50
2023-03-29T23:51:10.206Z,3.13
2023-03-29T23:53:37.307Z,2.37
2023-03-29T23:56:06.160Z,2.50
2023-03-29T23:58:35.092Z,2.60
